Bilhorod-Dnistrovs'kyy, Ukraine
Current Conditions -  °F | °C
As of 1:00 AM on Tuesday 23 Dec 2014 (Local Time) from UKOO Reporting Station
Rain Showers Rain Showers  
Wind Chill: 30°   Ceiling: 4000
Heat Index: 37°   Visibility: 6mi
Dew Point: 32°   Wind: 11mph
Humidity: 81%   Direction: 250°WSW
Pressure: 29.85"   Gusts: NA
Location:  46.2°N, 30.35°E
Report Text: UKOO 222200Z 25005MPS 9999 -SHRA SCT023CB OVC040 03/00 Q1011 16090060 NOSIG
Loading
Personal Weather Stations






























Interactive Weather Map New forecast layout! Learn more

10-Day Weather Forecast

Advertisements
Track Severe Weather on mobile